createdAt,value
2022-11-23T00:01:37.335Z,95.30
2022-11-23T00:04:13.382Z,95.45
2022-11-23T00:06:41.501Z,95.63
2022-11-23T00:09:10.756Z,94.79
2022-11-23T00:11:37.873Z,94.35
2022-11-23T00:14:05.198Z,94.38
2022-11-23T00:16:32.404Z,94.82
2022-11-23T00:19:01.943Z,95.69
2022-11-23T00:21:32.845Z,95.71
2022-11-23T00:24:00.500Z,95.73
2022-11-23T00:26:28.144Z,95.97
2022-11-23T00:28:55.210Z,95.00
2022-11-23T00:31:22.753Z,94.96
2022-11-23T00:33:53.584Z,95.53
2022-11-23T00:36:22.792Z,95.41
2022-11-23T00:38:51.182Z,95.44
2022-11-23T00:41:24.070Z,95.00
2022-11-23T00:43:51.484Z,95.28
2022-11-23T00:46:28.095Z,95.93
2022-11-23T00:48:57.374Z,95.00
2022-11-23T00:51:29.545Z,95.21
2022-11-23T00:53:56.797Z,94.91
2022-11-23T00:56:23.941Z,95.15
2022-11-23T00:58:56.552Z,95.57
2022-11-23T01:01:29.220Z,95.63
2022-11-23T01:03:59.499Z,95.56
2022-11-23T01:06:33.929Z,96.33
2022-11-23T01:09:17.217Z,96.45
2022-11-23T01:11:45.280Z,95.90
2022-11-23T01:14:12.927Z,96.04
2022-11-23T01:16:42.065Z,95.39
2022-11-23T01:19:14.779Z,95.44
2022-11-23T01:21:42.505Z,95.53
2022-11-23T01:24:22.079Z,95.22
2022-11-23T01:26:54.661Z,95.27
2022-11-23T01:29:23.783Z,95.72
2022-11-23T01:31:51.024Z,95.45
2022-11-23T01:34:18.313Z,95.63
2022-11-23T01:36:45.624Z,95.88
2022-11-23T01:39:13.895Z,95.62
2022-11-23T01:41:44.501Z,95.29
2022-11-23T01:44:32.954Z,95.49
2022-11-23T01:47:07.909Z,95.37
2022-11-23T01:49:46.204Z,95.87
2022-11-23T01:52:26.039Z,95.51
2022-11-23T01:55:01.544Z,95.67
2022-11-23T01:57:41.022Z,95.35
2022-11-23T02:00:09.278Z,95.18
2022-11-23T02:02:38.759Z,95.57
2022-11-23T02:05:06.760Z,95.75
2022-11-23T02:07:35.188Z,95.73
2022-11-23T02:10:02.734Z,95.54
2022-11-23T02:12:29.705Z,95.40
2022-11-23T02:14:56.727Z,95.13
2022-11-23T02:17:23.736Z,95.13
2022-11-23T02:20:05.591Z,95.54
2022-11-23T02:22:54.534Z,95.73
2022-11-23T02:25:45.496Z,95.50
2022-11-23T02:28:22.934Z,95.75
2022-11-23T02:30:53.181Z,95.89
2022-11-23T02:33:20.236Z,95.86
2022-11-23T02:35:55.208Z,95.70
2022-11-23T02:38:25.437Z,95.59
2022-11-23T02:40:52.485Z,95.94
2022-11-23T02:43:19.822Z,95.99
2022-11-23T02:45:58.633Z,95.78
2022-11-23T02:48:26.432Z,96.11
2022-11-23T02:50:53.453Z,95.72
2022-11-23T02:53:20.519Z,95.38
2022-11-23T02:55:47.774Z,95.62
2022-11-23T02:58:14.853Z,95.69
2022-11-23T03:00:41.920Z,96.01
2022-11-23T03:03:08.941Z,95.96
2022-11-23T03:05:36.051Z,95.71
2022-11-23T03:08:03.147Z,96.28
2022-11-23T03:10:30.222Z,95.78
2022-11-23T03:12:57.560Z,95.22
2022-11-23T03:15:28.619Z,94.83
2022-11-23T03:17:58.188Z,95.82
2022-11-23T03:20:25.395Z,96.06
2022-11-23T03:22:52.473Z,95.64
2022-11-23T03:25:19.584Z,95.78
2022-11-23T03:27:47.357Z,95.84
2022-11-23T03:30:15.463Z,95.48
2022-11-23T03:32:42.435Z,95.87
2022-11-23T03:35:09.778Z,96.05
2022-11-23T03:37:36.769Z,95.36
2022-11-23T03:40:04.087Z,95.46
2022-11-23T03:42:31.048Z,95.24
2022-11-23T03:44:58.053Z,95.78
2022-11-23T03:47:25.032Z,95.80
2022-11-23T03:49:51.989Z,95.91
2022-11-23T03:52:18.992Z,95.78
2022-11-23T03:54:46.987Z,95.80
2022-11-23T03:57:14.300Z,96.28
2022-11-23T03:59:41.276Z,96.41
2022-11-23T04:02:08.305Z,95.54
2022-11-23T04:04:36.161Z,95.75
2022-11-23T04:07:03.423Z,96.04
2022-11-23T04:09:30.869Z,96.27
2022-11-23T04:11:58.102Z,95.77
2022-11-23T04:14:25.182Z,95.94
2022-11-23T04:16:52.295Z,95.89
2022-11-23T04:19:19.463Z,95.69
2022-11-23T04:21:46.545Z,95.90
2022-11-23T04:24:13.606Z,95.67
2022-11-23T04:26:41.141Z,96.13
2022-11-23T04:29:08.136Z,96.13
2022-11-23T04:31:35.188Z,96.03
2022-11-23T04:34:02.245Z,95.34
2022-11-23T04:36:29.780Z,95.49
2022-11-23T04:38:56.783Z,96.25
2022-11-23T04:41:24.906Z,95.96
2022-11-23T04:43:51.950Z,95.59
2022-11-23T04:46:19.104Z,95.63
2022-11-23T04:48:46.134Z,95.39
2022-11-23T04:51:14.168Z,96.08
2022-11-23T04:53:41.173Z,96.35
2022-11-23T04:56:08.873Z,96.14
2022-11-23T04:58:36.552Z,95.72
2022-11-23T05:01:05.668Z,96.27
2022-11-23T05:03:35.217Z,96.26
2022-11-23T05:06:03.920Z,96.28
2022-11-23T05:08:31.763Z,96.23
2022-11-23T05:10:59.021Z,96.70
2022-11-23T05:13:26.136Z,95.52
2022-11-23T05:15:53.089Z,95.45
2022-11-23T05:18:20.406Z,95.79
2022-11-23T05:20:47.950Z,95.67
2022-11-23T05:23:15.295Z,95.76
2022-11-23T05:25:42.361Z,95.98
2022-11-23T05:28:38.895Z,96.05
2022-11-23T05:31:05.803Z,96.17
2022-11-23T05:33:32.856Z,95.64
2022-11-23T05:35:59.998Z,95.70
2022-11-23T05:38:27.289Z,96.02
2022-11-23T05:40:54.266Z,96.17
2022-11-23T05:43:21.639Z,95.10
2022-11-23T05:45:48.901Z,95.49
2022-11-23T05:48:15.877Z,96.09
2022-11-23T05:50:42.839Z,95.59
2022-11-23T05:53:09.915Z,96.29
2022-11-23T05:55:36.928Z,95.77
2022-11-23T05:58:03.934Z,95.09
2022-11-23T06:00:31.025Z,95.36
2022-11-23T06:03:02.337Z,95.81
2022-11-23T06:05:30.498Z,95.91
2022-11-23T06:07:57.853Z,96.31
2022-11-23T06:10:24.978Z,96.34
2022-11-23T06:12:52.634Z,95.61
2022-11-23T06:15:20.047Z,95.67
2022-11-23T06:17:47.110Z,95.31
2022-11-23T06:20:14.369Z,95.64
2022-11-23T06:22:41.341Z,95.47
2022-11-23T06:25:09.164Z,95.41
2022-11-23T06:27:36.213Z,95.11
2022-11-23T06:30:03.996Z,95.66
2022-11-23T06:32:30.943Z,95.03
2022-11-23T06:35:00.824Z,95.28
2022-11-23T06:37:28.358Z,95.01
2022-11-23T06:39:55.341Z,95.12
2022-11-23T06:42:39.875Z,95.39
2022-11-23T06:45:08.733Z,95.06
2022-11-23T06:47:35.974Z,95.32
2022-11-23T06:50:03.295Z,95.00
2022-11-23T06:52:30.395Z,94.96
2022-11-23T06:54:57.417Z,95.00
2022-11-23T06:57:24.649Z,95.27
2022-11-23T06:59:51.672Z,95.08
2022-11-23T07:02:18.779Z,95.05
2022-11-23T07:04:45.852Z,95.52
2022-11-23T07:07:13.089Z,95.45
2022-11-23T07:09:40.391Z,95.18
2022-11-23T07:12:07.959Z,94.94
2022-11-23T07:14:35.081Z,95.11
2022-11-23T07:17:02.235Z,95.62
2022-11-23T07:19:29.588Z,94.97
2022-11-23T07:21:56.777Z,95.27
2022-11-23T07:24:23.773Z,95.63
2022-11-23T07:26:51.161Z,95.73
2022-11-23T07:29:21.430Z,95.71
2022-11-23T07:31:48.536Z,95.47
2022-11-23T07:34:15.529Z,95.64
2022-11-23T07:36:42.626Z,95.73
2022-11-23T07:39:09.897Z,95.88
2022-11-23T07:41:36.875Z,95.96
2022-11-23T07:44:04.348Z,96.33
2022-11-23T07:46:31.341Z,95.88
2022-11-23T07:49:02.142Z,95.40
2022-11-23T07:51:29.885Z,95.31
2022-11-23T07:53:57.468Z,95.11
2022-11-23T07:56:24.880Z,95.04
2022-11-23T07:58:52.141Z,94.57
2022-11-23T08:01:20.114Z,94.88
2022-11-23T08:03:48.479Z,94.90
2022-11-23T08:06:16.781Z,94.32
2022-11-23T08:08:44.052Z,94.45
2022-11-23T08:11:14.642Z,94.44
2022-11-23T08:13:41.675Z,94.58
2022-11-23T08:16:08.799Z,95.02
2022-11-23T08:18:38.198Z,94.51
2022-11-23T08:21:05.763Z,94.49
2022-11-23T08:23:33.023Z,94.34
2022-11-23T08:26:02.456Z,94.97
2022-11-23T08:28:29.588Z,94.34
2022-11-23T08:30:56.573Z,94.49
2022-11-23T08:33:23.577Z,94.35
2022-11-23T08:35:50.519Z,93.81
2022-11-23T08:38:17.612Z,94.36
2022-11-23T08:40:44.780Z,94.04
2022-11-23T08:43:11.783Z,94.56
2022-11-23T08:45:39.032Z,93.70
2022-11-23T08:48:06.992Z,93.84
2022-11-23T08:50:35.219Z,93.92
2022-11-23T08:53:02.247Z,93.25
2022-11-23T08:55:29.997Z,93.94
2022-11-23T08:57:58.502Z,93.32
2022-11-23T09:00:26.744Z,92.62
2022-11-23T09:02:53.869Z,92.95
2022-11-23T09:05:21.844Z,93.32
2022-11-23T09:07:49.015Z,93.24
2022-11-23T09:10:18.718Z,93.07
2022-11-23T09:12:48.258Z,93.67
2022-11-23T09:15:15.668Z,92.97
2022-11-23T09:17:42.983Z,92.05
2022-11-23T09:20:11.502Z,91.60
2022-11-23T09:22:39.261Z,91.63
2022-11-23T09:25:07.273Z,90.63
2022-11-23T09:27:34.422Z,91.24
2022-11-23T09:30:01.636Z,89.59
2022-11-23T09:32:29.148Z,90.34
2022-11-23T09:34:56.116Z,90.08
2022-11-23T09:37:23.208Z,91.00
2022-11-23T09:39:50.190Z,91.27
2022-11-23T09:42:47.292Z,91.39
2022-11-23T09:45:50.683Z,90.17
2022-11-23T09:49:14.827Z,89.65
2022-11-23T09:51:43.096Z,90.83
2022-11-23T09:54:37.512Z,89.75
2022-11-23T09:57:05.652Z,90.60
2022-11-23T09:59:53.259Z,90.22
2022-11-23T10:02:24.980Z,90.38
2022-11-23T10:04:53.588Z,90.33
2022-11-23T10:08:06.477Z,89.84
2022-11-23T10:10:46.659Z,89.90
2022-11-23T10:13:53.725Z,89.79
2022-11-23T10:17:14.768Z,90.76
2022-11-23T10:20:18.287Z,90.10
2022-11-23T10:23:01.868Z,90.81
2022-11-23T10:25:47.296Z,90.46
2022-11-23T10:28:19.858Z,90.31
2022-11-23T10:31:17.822Z,90.34
2022-11-23T10:34:23.668Z,90.32
2022-11-23T10:36:50.804Z,90.09
2022-11-23T10:39:25.948Z,89.84
2022-11-23T10:42:03.120Z,90.31
2022-11-23T10:44:38.060Z,89.99
2022-11-23T10:47:05.645Z,89.86
2022-11-23T10:49:35.488Z,90.32
2022-11-23T10:52:33.433Z,90.27
2022-11-23T10:55:06.142Z,89.59
2022-11-23T10:57:42.694Z,89.12
2022-11-23T11:00:15.402Z,88.60
2022-11-23T11:02:54.310Z,87.98
2022-11-23T11:08:36.871Z,86.86
2022-11-23T11:11:21.093Z,86.91
2022-11-23T11:13:49.490Z,86.59
2022-11-23T11:16:35.549Z,87.70
2022-11-23T11:19:36.420Z,87.01
2022-11-23T11:22:33.379Z,87.84
2022-11-23T11:25:02.344Z,86.90
2022-11-23T11:27:31.946Z,86.93
2022-11-23T11:30:20.525Z,87.29
2022-11-23T11:33:26.260Z,86.32
2022-11-23T11:35:56.521Z,86.23
2022-11-23T11:38:35.725Z,85.70
2022-11-23T11:41:15.584Z,86.17
2022-11-23T11:43:53.558Z,85.57
2022-11-23T11:46:29.641Z,85.25
2022-11-23T11:49:21.624Z,86.81
2022-11-23T11:52:19.017Z,86.51
2022-11-23T11:55:15.297Z,87.18
2022-11-23T11:57:50.075Z,86.79
2022-11-23T12:00:20.657Z,86.57
2022-11-23T12:03:42.922Z,86.99
2022-11-23T12:06:36.021Z,86.79
2022-11-23T12:09:20.209Z,86.82
2022-11-23T12:11:47.357Z,86.61
2022-11-23T12:14:15.626Z,86.78
2022-11-23T12:17:32.344Z,86.02
2022-11-23T12:20:22.634Z,86.31
2022-11-23T12:23:19.497Z,86.56
2022-11-23T12:26:29.969Z,86.24
2022-11-23T12:29:31.694Z,86.28
2022-11-23T12:32:51.807Z,86.94
2022-11-23T12:36:07.236Z,86.28
2022-11-23T12:39:09.985Z,85.81
2022-11-23T12:42:15.096Z,86.18
2022-11-23T12:44:59.647Z,84.83
2022-11-23T12:48:15.439Z,86.05
2022-11-23T12:51:23.573Z,84.59
2022-11-23T12:54:17.413Z,84.99
2022-11-23T12:57:02.268Z,85.45
2022-11-23T12:59:57.957Z,86.25
2022-11-23T13:02:57.292Z,86.32
2022-11-23T13:06:02.143Z,86.44
2022-11-23T13:09:07.443Z,87.00
2022-11-23T13:12:17.523Z,86.61
2022-11-23T13:15:23.156Z,85.42
2022-11-23T13:18:23.143Z,85.60
2022-11-23T13:21:30.361Z,85.13
2022-11-23T13:23:57.430Z,85.40
2022-11-23T13:26:33.964Z,84.54
2022-11-23T13:29:51.722Z,85.38
2022-11-23T13:32:42.311Z,86.24
2022-11-23T13:35:21.035Z,86.75
2022-11-23T13:37:56.697Z,87.09
2022-11-23T13:40:35.796Z,87.80
2022-11-23T13:43:32.624Z,87.58
2022-11-23T13:46:28.755Z,88.58
2022-11-23T13:49:00.582Z,87.81
2022-11-23T13:51:35.891Z,88.78
2022-11-23T13:54:21.852Z,88.87
2022-11-23T13:57:02.161Z,89.36
2022-11-23T13:59:34.879Z,88.95
2022-11-23T14:02:07.959Z,89.47
2022-11-23T14:05:11.634Z,90.33
2022-11-23T14:07:46.456Z,90.78
2022-11-23T14:10:24.388Z,91.27
2022-11-23T14:13:05.623Z,90.55
2022-11-23T14:15:38.292Z,90.63
2022-11-23T14:18:58.780Z,91.71
2022-11-23T14:21:39.259Z,91.38
2022-11-23T14:25:08.852Z,91.83
2022-11-23T14:28:32.047Z,92.39
2022-11-23T14:31:46.398Z,92.13
2022-11-23T14:34:41.307Z,92.94
2022-11-23T14:38:00.289Z,92.22
2022-11-23T14:41:19.337Z,92.71
2022-11-23T14:43:47.541Z,93.21
2022-11-23T14:46:24.653Z,92.68
2022-11-23T14:49:02.805Z,92.46
2022-11-23T14:51:30.002Z,92.05
2022-11-23T14:54:08.081Z,91.74
2022-11-23T14:56:47.459Z,91.74
2022-11-23T14:59:17.441Z,92.04
2022-11-23T15:02:11.672Z,93.36
2022-11-23T15:05:07.421Z,93.38
2022-11-23T15:08:21.819Z,93.42
2022-11-23T15:11:22.072Z,93.25
2022-11-23T15:13:55.430Z,93.59
2022-11-23T15:16:22.676Z,93.45
2022-11-23T15:18:49.777Z,92.94
2022-11-23T15:21:27.968Z,92.65
2022-11-23T15:23:58.200Z,93.14
2022-11-23T15:26:48.090Z,92.80
2022-11-23T15:29:39.113Z,93.21
2022-11-23T15:32:34.693Z,94.50
2022-11-23T15:35:12.919Z,93.79
2022-11-23T15:37:48.855Z,94.29
2022-11-23T15:40:19.333Z,94.29
2022-11-23T15:42:51.126Z,94.40
2022-11-23T15:45:45.660Z,94.55
2022-11-23T15:48:23.130Z,94.70
2022-11-23T15:51:04.634Z,94.88
2022-11-23T15:53:51.872Z,93.98
2022-11-23T15:56:36.137Z,94.83
2022-11-23T15:59:33.590Z,94.43
2022-11-23T16:02:04.822Z,93.66
2022-11-23T16:04:41.346Z,93.99
2022-11-23T16:07:25.697Z,94.36
2022-11-23T16:10:22.945Z,94.67
2022-11-23T16:12:57.145Z,93.81
2022-11-23T16:15:44.124Z,93.96
2022-11-23T16:18:31.779Z,94.92
2022-11-23T16:21:04.892Z,94.52
2022-11-23T16:24:04.905Z,95.77
2022-11-23T16:26:33.772Z,95.21
2022-11-23T16:29:02.074Z,95.44
2022-11-23T16:31:37.013Z,95.73
2022-11-23T16:34:16.492Z,95.45
2022-11-23T16:36:43.483Z,95.54
2022-11-23T16:39:11.190Z,95.09
2022-11-23T16:41:38.461Z,95.10
2022-11-23T16:44:05.671Z,94.75
2022-11-23T16:46:33.029Z,94.76
2022-11-23T16:49:00.669Z,95.11
2022-11-23T16:51:30.471Z,95.81
2022-11-23T16:54:15.284Z,95.20
2022-11-23T16:56:45.187Z,96.16
2022-11-23T16:59:22.704Z,96.22
2022-11-23T17:01:56.623Z,96.10
2022-11-23T17:04:25.361Z,96.20
2022-11-23T17:06:52.404Z,95.76
2022-11-23T17:09:19.531Z,95.24
2022-11-23T17:11:50.227Z,94.81
2022-11-23T17:14:19.149Z,94.09
2022-11-23T17:16:57.389Z,94.73
2022-11-23T17:19:24.443Z,94.20
2022-11-23T17:21:51.622Z,94.96
2022-11-23T17:24:18.906Z,95.28
2022-11-23T17:26:52.632Z,95.57
2022-11-23T17:29:21.239Z,95.23
2022-11-23T17:31:50.559Z,95.51
2022-11-23T17:34:18.003Z,95.76
2022-11-23T17:36:49.281Z,95.64
2022-11-23T17:39:23.550Z,95.06
2022-11-23T17:41:51.135Z,95.58
2022-11-23T17:44:18.267Z,95.89
2022-11-23T17:46:47.045Z,95.73
2022-11-23T17:49:19.943Z,96.18
2022-11-23T17:51:47.081Z,95.51
2022-11-23T17:54:14.051Z,95.44
2022-11-23T17:56:41.085Z,95.17
2022-11-23T17:59:08.613Z,95.54
2022-11-23T18:01:35.744Z,95.42
2022-11-23T18:04:04.831Z,94.96
2022-11-23T18:06:32.026Z,95.83
2022-11-23T18:08:59.267Z,95.45
2022-11-23T18:11:28.383Z,96.59
2022-11-23T18:13:55.697Z,95.99
2022-11-23T18:16:23.810Z,96.39
2022-11-23T18:18:51.026Z,96.04
2022-11-23T18:21:18.941Z,95.53
2022-11-23T18:23:46.124Z,96.25
2022-11-23T18:26:25.874Z,96.92
2022-11-23T18:28:53.666Z,96.22
2022-11-23T18:31:21.146Z,95.56
2022-11-23T18:33:48.238Z,95.72
2022-11-23T18:36:15.882Z,95.95
2022-11-23T18:38:46.597Z,94.77
2022-11-23T18:41:16.398Z,95.42
2022-11-23T18:43:45.316Z,94.99
2022-11-23T18:46:19.132Z,95.51
2022-11-23T18:48:48.767Z,95.43
2022-11-23T18:51:17.269Z,95.18
2022-11-23T18:53:47.322Z,95.85
2022-11-23T18:56:14.387Z,95.88
2022-11-23T18:58:44.625Z,95.46
2022-11-23T19:01:21.919Z,94.61
2022-11-23T19:03:52.842Z,95.42
2022-11-23T19:06:22.737Z,95.23
2022-11-23T19:08:54.573Z,95.26
2022-11-23T19:11:25.970Z,94.79
2022-11-23T19:13:57.551Z,94.58
2022-11-23T19:16:29.985Z,94.53
2022-11-23T19:19:06.671Z,95.27
2022-11-23T19:21:36.028Z,94.80
2022-11-23T19:24:04.092Z,94.33
2022-11-23T19:26:31.606Z,94.70
2022-11-23T19:28:59.384Z,94.73
2022-11-23T19:31:30.284Z,95.50
2022-11-23T19:34:01.577Z,95.55
2022-11-23T19:36:31.147Z,94.62
2022-11-23T19:39:00.547Z,94.85
2022-11-23T19:41:30.654Z,95.62
2022-11-23T19:44:00.413Z,95.53
2022-11-23T19:46:30.299Z,95.29
2022-11-23T19:48:58.384Z,95.07
2022-11-23T19:51:26.879Z,94.88
2022-11-23T19:53:57.030Z,94.30
2022-11-23T19:56:28.734Z,95.31
2022-11-23T19:59:01.155Z,95.46
2022-11-23T20:01:32.089Z,95.95
2022-11-23T20:04:08.841Z,95.08
2022-11-23T20:06:38.649Z,94.81
2022-11-23T20:09:10.216Z,95.14
2022-11-23T20:11:40.354Z,94.81
2022-11-23T20:14:10.679Z,95.23
2022-11-23T20:16:38.634Z,95.00
2022-11-23T20:19:09.405Z,95.32
2022-11-23T20:21:37.885Z,94.83
2022-11-23T20:24:11.441Z,95.21
2022-11-23T20:26:39.152Z,94.93
2022-11-23T20:29:08.463Z,95.34
2022-11-23T20:31:37.121Z,94.96
2022-11-23T20:34:07.547Z,95.38
2022-11-23T20:36:38.021Z,95.28
2022-11-23T20:39:09.768Z,95.41
2022-11-23T20:41:38.472Z,95.44
2022-11-23T20:44:12.642Z,94.94
2022-11-23T20:49:27.896Z,95.36
2022-11-23T20:51:54.895Z,95.55
2022-11-23T20:54:21.923Z,95.38
2022-11-23T20:56:48.912Z,95.21
2022-11-23T20:59:16.061Z,95.56
2022-11-23T21:01:43.110Z,95.32
2022-11-23T21:04:10.263Z,95.39
2022-11-23T21:06:39.814Z,95.21
2022-11-23T21:09:09.250Z,95.54
2022-11-23T21:11:58.324Z,95.91
2022-11-23T21:14:27.992Z,95.77
2022-11-23T21:16:59.276Z,95.78
2022-11-23T21:19:42.009Z,95.42
2022-11-23T21:22:13.433Z,95.67
2022-11-23T21:24:40.882Z,94.97
2022-11-23T21:27:12.504Z,94.75
2022-11-23T21:29:39.533Z,95.41
2022-11-23T21:32:06.564Z,94.76
2022-11-23T21:34:33.891Z,95.49
2022-11-23T21:37:01.613Z,95.29
2022-11-23T21:39:31.544Z,94.74
2022-11-23T21:41:58.856Z,95.01
2022-11-23T21:44:26.368Z,94.49
2022-11-23T21:46:53.495Z,94.83
2022-11-23T21:49:20.593Z,95.08
2022-11-23T21:51:48.191Z,95.11
2022-11-23T21:54:15.700Z,94.85
2022-11-23T21:56:45.609Z,95.85
2022-11-23T21:59:13.333Z,95.61
2022-11-23T22:01:42.479Z,94.87
2022-11-23T22:04:16.159Z,94.72
2022-11-23T22:06:45.325Z,94.85
2022-11-23T22:09:13.774Z,95.00
2022-11-23T22:11:43.653Z,95.71
2022-11-23T22:14:15.208Z,94.95
2022-11-23T22:16:56.608Z,94.22
2022-11-23T22:19:27.389Z,94.21
2022-11-23T22:21:54.506Z,94.38
2022-11-23T22:24:22.586Z,94.43
2022-11-23T22:26:49.939Z,95.32
2022-11-23T22:29:17.225Z,95.49
2022-11-23T22:31:44.462Z,95.46
2022-11-23T22:34:13.807Z,94.63
2022-11-23T22:36:41.368Z,94.58
2022-11-23T22:39:09.532Z,94.58
2022-11-23T22:41:38.181Z,94.45
2022-11-23T22:44:09.808Z,94.24
2022-11-23T22:46:38.536Z,93.90
2022-11-23T22:49:06.020Z,94.98
2022-11-23T22:51:33.724Z,94.53
2022-11-23T22:54:01.953Z,95.25
2022-11-23T22:56:31.171Z,94.46
2022-11-23T22:58:58.969Z,95.13
2022-11-23T23:01:30.136Z,96.85
2022-11-23T23:04:01.422Z,97.67
2022-11-23T23:06:35.832Z,97.45
2022-11-23T23:09:07.188Z,97.10
2022-11-23T23:11:35.699Z,96.96
2022-11-23T23:14:03.551Z,96.78
2022-11-23T23:16:31.023Z,97.69
2022-11-23T23:18:59.666Z,98.01
2022-11-23T23:21:29.116Z,97.39
2022-11-23T23:24:00.937Z,97.73
2022-11-23T23:26:29.106Z,98.22
2022-11-23T23:28:59.763Z,97.33
2022-11-23T23:31:28.459Z,97.02
2022-11-23T23:33:55.770Z,97.56
2022-11-23T23:36:24.451Z,97.94
2022-11-23T23:38:52.121Z,97.38
2022-11-23T23:41:19.664Z,97.15
2022-11-23T23:43:48.294Z,97.85
2022-11-23T23:46:16.362Z,97.96
2022-11-23T23:48:44.061Z,97.80
2022-11-23T23:51:18.152Z,97.62
2022-11-23T23:53:46.640Z,97.68
2022-11-23T23:56:27.121Z,97.28
2022-11-23T23:58:59.044Z,97.89
